Pagrindinis puslapis
METAR-TAF:

METAR-TAF

Oro uostai :

Ponta Delgada, Azorai, Portugalija

platuma: 37-44N, ilguma: 025-42W, Aukštis: 71 m

Dabartinis oras

Ataskaita buvo paskelbta 42 minutes, ne 14:00 UTC
Vėjas 10 kt iš Vakarų
Temperatūra 19°C
Drėgmė 64%
Slėgis 1026 hPa
Matomumas 10 km arba daugiau
Mažai debesys ne aukštis 2800 ft

METAR: LPPD 171400Z 27010KT 9999 FEW028 19/12 Q1026

Laikas: 13:42 (14:42 UTC)

Prognozė

Ataskaita buvo paskelbta 3 valandos ir 42 minutes, ne 11:00 UTC
Prognozė galioja nuo 17 metu 12 UTC su 18 metu 12 UTC
Vėjas 10 kt iš Šiaurės Vakarų
Matomumas 10 km arba daugiau
Mažai debesys ne aukštis 2000 ft
Išsisklaidę debesys ne aukštis 4500 ft
Laikinai
nuo 17 metu 12 UTC su 18 metu 09 UTC
Išsisklaidę debesys ne aukštis 1800 ft
Tapsmas
nuo 18 metu 09 UTC su 18 metu 12 UTC
Vėjas 13 kt iš Vakarų
Išsisklaidę debesys ne aukštis 1200 ft

TAF: LPPD 171100Z 1712/1812 31010KT 9999 FEW020 SCT045 TEMPO 1712/1809 SCT018 BECMG 1809/1812 27013KT SCT012

Orai ataskaitas ir orų prognozės (METAR, TAF).

turimą stotys yra geltonos ir raudonos taškus žemėlapyje.

Perkelti pele per norėdami pamatyti stoties vardą.

Tada spustelėkite, norėdami matyti oro stebėjimo ir prognozės.

Norėdami pakeisti žemėlapį: spustelėkite ant žalios mygtukų su juodo kryžiaus žemyn,; žalią mygtuką su brūkšneliu, jei norite nutolinti; arba žalių rodyklių gretimoms žemėlapius.


METAR-TAF: